Terminal Aerodrome Forecast
Issued by NWS Detroit/Pontiac, MI

Home | Current Version | Previous Version | Text Only | Print | Product List | Glossary On
Versions: 1 2 3 4 5 6 7 8 9 10 11 12 13 14 15 16 17 18 19 20 21 22 23 24 25 26 27 28 29
000
FTUS43 KDTX 270241 AAA
TAFDTW
TAF AMD
KDTW 270241Z 2703/2806 30010KT P6SM OVC045
     FM270800 32012KT P6SM SCT025 BKN045
     FM271500 34011KT P6SM BKN050
     FM271900 01010KT P6SM OVC050
     FM280200 34006KT P6SM SCT150=

USA.gov is the U.S. government's official web portal to all federal, state and local government web resources and services.